sensor_id;sensor_type;location;lat;lon;timestamp;pressure;altitude;pressure_sealevel;temperature;humidity
84944;BME280;75231;53.650;9.788;2023-12-28T00:01:35;100642.31;;;8.11;81.12
84944;BME280;75231;53.650;9.788;2023-12-28T00:04:01;100646.97;;;8.05;82.58
84944;BME280;75231;53.650;9.788;2023-12-28T00:06:26;100654.72;;;8.05;82.18
84944;BME280;75231;53.650;9.788;2023-12-28T00:08:51;100649.06;;;7.98;83.35
84944;BME280;75231;53.650;9.788;2023-12-28T00:11:17;100650.72;;;7.99;82.85
84944;BME280;75231;53.650;9.788;2023-12-28T00:13:42;100655.78;;;8.01;83.30
84944;BME280;75231;53.650;9.788;2023-12-28T00:16:07;100668.09;;;7.96;83.21
84944;BME280;75231;53.650;9.788;2023-12-28T00:18:32;100673.75;;;8.02;83.61
84944;BME280;75231;53.650;9.788;2023-12-28T00:20:58;100665.44;;;7.97;84.15
84944;BME280;75231;53.650;9.788;2023-12-28T00:23:23;100668.50;;;7.88;84.68
84944;BME280;75231;53.650;9.788;2023-12-28T00:25:48;100666.91;;;7.85;85.55
84944;BME280;75231;53.650;9.788;2023-12-28T00:28:13;100665.41;;;7.81;86.01
84944;BME280;75231;53.650;9.788;2023-12-28T00:30:39;100668.22;;;7.77;86.42
84944;BME280;75231;53.650;9.788;2023-12-28T00:33:04;100661.41;;;7.76;86.91
84944;BME280;75231;53.650;9.788;2023-12-28T00:35:30;100675.38;;;7.72;87.63
84944;BME280;75231;53.650;9.788;2023-12-28T00:37:55;100682.41;;;7.68;87.93
84944;BME280;75231;53.650;9.788;2023-12-28T00:40:20;100671.53;;;7.63;88.25
84944;BME280;75231;53.650;9.788;2023-12-28T00:42:47;100673.19;;;7.64;88.17
84944;BME280;75231;53.650;9.788;2023-12-28T00:45:12;100665.38;;;7.66;88.44
84944;BME280;75231;53.650;9.788;2023-12-28T00:47:37;100667.06;;;7.67;88.53
84944;BME280;75231;53.650;9.788;2023-12-28T00:50:03;100668.19;;;7.61;88.47
84944;BME280;75231;53.650;9.788;2023-12-28T00:52:28;100682.50;;;7.67;88.95
84944;BME280;75231;53.650;9.788;2023-12-28T00:54:54;100671.53;;;7.63;88.53
84944;BME280;75231;53.650;9.788;2023-12-28T00:57:19;100684.75;;;7.73;88.74
84944;BME280;75231;53.650;9.788;2023-12-28T00:59:44;100673.72;;;7.71;88.60
84944;BME280;75231;53.650;9.788;2023-12-28T01:02:09;100677.03;;;7.73;89.30
84944;BME280;75231;53.650;9.788;2023-12-28T01:04:35;100678.91;;;7.69;89.17
84944;BME280;75231;53.650;9.788;2023-12-28T01:07:00;100678.03;;;7.70;89.15
84944;BME280;75231;53.650;9.788;2023-12-28T01:09:30;100672.72;;;7.73;89.11
84944;BME280;75231;53.650;9.788;2023-12-28T01:11:57;100671.88;;;7.73;88.48
84944;BME280;75231;53.650;9.788;2023-12-28T01:14:22;100666.56;;;7.76;88.90
84944;BME280;75231;53.650;9.788;2023-12-28T01:16:47;100682.44;;;7.84;88.66
84944;BME280;75231;53.650;9.788;2023-12-28T01:19:13;100694.34;;;7.87;88.75
84944;BME280;75231;53.650;9.788;2023-12-28T01:21:38;100692.81;;;7.82;88.77
84944;BME280;75231;53.650;9.788;2023-12-28T01:24:03;100679.72;;;7.87;88.91
84944;BME280;75231;53.650;9.788;2023-12-28T01:26:29;100674.47;;;7.89;88.19
84944;BME280;75231;53.650;9.788;2023-12-28T01:28:54;100690.19;;;8.00;88.37
84944;BME280;75231;53.650;9.788;2023-12-28T01:31:19;100692.66;;;8.01;88.22
84944;BME280;75231;53.650;9.788;2023-12-28T01:33:44;100685.72;;;8.03;87.86
84944;BME280;75231;53.650;9.788;2023-12-28T01:36:16;100700.06;;;8.07;88.32
84944;BME280;75231;53.650;9.788;2023-12-28T01:38:42;100691.28;;;7.96;88.26
84944;BME280;75231;53.650;9.788;2023-12-28T01:41:07;100689.66;;;7.93;88.04
84944;BME280;75231;53.650;9.788;2023-12-28T01:43:32;100698.31;;;7.92;88.28
84944;BME280;75231;53.650;9.788;2023-12-28T01:45:58;100714.06;;;8.03;87.61
84944;BME280;75231;53.650;9.788;2023-12-28T01:48:23;100714.63;;;8.08;87.10
84944;BME280;75231;53.650;9.788;2023-12-28T01:50:48;100705.66;;;8.16;87.10
84944;BME280;75231;53.650;9.788;2023-12-28T01:53:14;100700.34;;;8.19;86.98
84944;BME280;75231;53.650;9.788;2023-12-28T01:55:39;100711.41;;;8.21;86.94
84944;BME280;75231;53.650;9.788;2023-12-28T01:58:05;100702.09;;;8.18;86.58
84944;BME280;75231;53.650;9.788;2023-12-28T02:00:30;100702.00;;;8.20;86.30
84944;BME280;75231;53.650;9.788;2023-12-28T02:02:57;100703.66;;;8.21;86.00
84944;BME280;75231;53.650;9.788;2023-12-28T02:05:23;100712.31;;;8.20;86.65
84944;BME280;75231;53.650;9.788;2023-12-28T02:07:48;100712.31;;;8.20;86.58
84944;BME280;75231;53.650;9.788;2023-12-28T02:10:13;100717.88;;;8.28;86.00
84944;BME280;75231;53.650;9.788;2023-12-28T02:12:38;100718.63;;;8.30;86.29
84944;BME280;75231;53.650;9.788;2023-12-28T02:15:04;100713.72;;;8.25;85.77
84944;BME280;75231;53.650;9.788;2023-12-28T02:17:36;100722.13;;;8.29;86.14
84944;BME280;75231;53.650;9.788;2023-12-28T02:20:03;100737.16;;;8.21;86.64
84944;BME280;75231;53.650;9.788;2023-12-28T02:22:32;100723.78;;;8.14;86.40
84944;BME280;75231;53.650;9.788;2023-12-28T02:27:22;100731.75;;;8.25;86.05
84944;BME280;75231;53.650;9.788;2023-12-28T02:29:47;100716.22;;;8.27;85.92
84944;BME280;75231;53.650;9.788;2023-12-28T02:32:13;100716.28;;;8.25;85.50
84944;BME280;75231;53.650;9.788;2023-12-28T02:34:42;100725.63;;;8.28;86.05
84944;BME280;75231;53.650;9.788;2023-12-28T02:37:12;100729.84;;;8.29;85.58
84944;BME280;75231;53.650;9.788;2023-12-28T02:39:39;100740.16;;;8.29;85.85
84944;BME280;75231;53.650;9.788;2023-12-28T02:42:05;100735.66;;;8.17;86.38
84944;BME280;75231;53.650;9.788;2023-12-28T02:44:31;100731.00;;;8.07;86.21
84944;BME280;75231;53.650;9.788;2023-12-28T02:46:56;100731.00;;;8.07;86.20
84944;BME280;75231;53.650;9.788;2023-12-28T02:49:21;100725.28;;;8.02;86.51
84944;BME280;75231;53.650;9.788;2023-12-28T02:51:47;100728.59;;;8.04;86.76
84944;BME280;75231;53.650;9.788;2023-12-28T02:54:12;100734.47;;;8.06;86.48
84944;BME280;75231;53.650;9.788;2023-12-28T02:56:39;100736.75;;;8.12;85.88
84944;BME280;75231;53.650;9.788;2023-12-28T02:59:05;100740.47;;;8.07;85.91
84944;BME280;75231;53.650;9.788;2023-12-28T03:01:31;100751.78;;;8.04;86.42
84944;BME280;75231;53.650;9.788;2023-12-28T03:03:56;100750.78;;;8.07;86.34
84944;BME280;75231;53.650;9.788;2023-12-28T03:06:21;100733.44;;;8.10;85.70
84944;BME280;75231;53.650;9.788;2023-12-28T03:08:46;100747.97;;;8.11;86.04
84944;BME280;75231;53.650;9.788;2023-12-28T03:11:14;100734.41;;;8.08;86.27
84944;BME280;75231;53.650;9.788;2023-12-28T03:13:39;100744.88;;;8.05;85.97
84944;BME280;75231;53.650;9.788;2023-12-28T03:16:05;100747.69;;;8.00;86.70
84944;BME280;75231;53.650;9.788;2023-12-28T03:18:30;100743.31;;;8.02;86.47
84944;BME280;75231;53.650;9.788;2023-12-28T03:20:56;100739.22;;;7.98;86.67
84944;BME280;75231;53.650;9.788;2023-12-28T03:23:21;100743.31;;;8.02;86.53
84944;BME280;75231;53.650;9.788;2023-12-28T03:25:46;100740.56;;;8.05;86.11
84944;BME280;75231;53.650;9.788;2023-12-28T03:28:11;100751.28;;;8.13;85.93
84944;BME280;75231;53.650;9.788;2023-12-28T03:30:37;100739.72;;;8.05;86.33
84944;BME280;75231;53.650;9.788;2023-12-28T03:33:02;100732.22;;;8.00;86.02
84944;BME280;75231;53.650;9.788;2023-12-28T03:35:29;100728.50;;;8.06;86.36
84944;BME280;75231;53.650;9.788;2023-12-28T03:37:54;100727.56;;;7.91;86.73
84944;BME280;75231;53.650;9.788;2023-12-28T03:40:19;100730.22;;;7.90;86.83
84944;BME280;75231;53.650;9.788;2023-12-28T03:42:45;100729.09;;;7.95;86.46
84944;BME280;75231;53.650;9.788;2023-12-28T03:45:10;100723.50;;;7.87;87.05
84944;BME280;75231;53.650;9.788;2023-12-28T03:47:36;100729.00;;;7.97;86.79
84944;BME280;75231;53.650;9.788;2023-12-28T03:50:02;100729.13;;;7.94;86.67
84944;BME280;75231;53.650;9.788;2023-12-28T03:52:27;100734.88;;;7.99;86.74
84944;BME280;75231;53.650;9.788;2023-12-28T03:54:55;100737.63;;;7.96;86.50
84944;BME280;75231;53.650;9.788;2023-12-28T03:57:20;100739.03;;;8.01;86.33
84944;BME280;75231;53.650;9.788;2023-12-28T03:59:45;100728.72;;;8.01;86.12
84944;BME280;75231;53.650;9.788;2023-12-28T04:02:12;100729.41;;;8.05;86.19
84944;BME280;75231;53.650;9.788;2023-12-28T04:04:38;100731.66;;;7.95;86.19
84944;BME280;75231;53.650;9.788;2023-12-28T04:07:03;100738.28;;;7.99;86.52
84944;BME280;75231;53.650;9.788;2023-12-28T04:09:32;100730.88;;;7.93;86.53
84944;BME280;75231;53.650;9.788;2023-12-28T04:11:57;100725.91;;;7.90;86.70
84944;BME280;75231;53.650;9.788;2023-12-28T04:14:23;100735.22;;;7.93;86.57
84944;BME280;75231;53.650;9.788;2023-12-28T04:16:48;100723.41;;;7.89;86.68
84944;BME280;75231;53.650;9.788;2023-12-28T04:19:13;100728.47;;;7.90;86.60
84944;BME280;75231;53.650;9.788;2023-12-28T04:21:42;100729.56;;;7.86;86.98
84944;BME280;75231;53.650;9.788;2023-12-28T04:24:08;100729.47;;;7.88;86.68
84944;BME280;75231;53.650;9.788;2023-12-28T04:26:33;100720.94;;;7.87;86.52
84944;BME280;75231;53.650;9.788;2023-12-28T04:28:58;100719.19;;;7.88;87.02
84944;BME280;75231;53.650;9.788;2023-12-28T04:31:24;100708.50;;;7.78;87.13
84944;BME280;75231;53.650;9.788;2023-12-28T04:33:49;100718.41;;;7.85;86.88
84944;BME280;75231;53.650;9.788;2023-12-28T04:36:14;100727.41;;;7.94;86.51
84944;BME280;75231;53.650;9.788;2023-12-28T04:38:39;100718.19;;;7.90;86.78
84944;BME280;75231;53.650;9.788;2023-12-28T04:41:05;100719.41;;;7.83;87.02
84944;BME280;75231;53.650;9.788;2023-12-28T04:43:30;100719.28;;;7.86;87.02
84944;BME280;75231;53.650;9.788;2023-12-28T04:45:55;100729.56;;;7.86;86.69
84944;BME280;75231;53.650;9.788;2023-12-28T04:48:20;100720.59;;;7.93;86.43
84944;BME280;75231;53.650;9.788;2023-12-28T04:50:48;100728.47;;;7.90;86.45
84944;BME280;75231;53.650;9.788;2023-12-28T04:53:14;100725.72;;;7.93;86.64
84944;BME280;75231;53.650;9.788;2023-12-28T04:55:39;100736.13;;;7.92;86.19
84944;BME280;75231;53.650;9.788;2023-12-28T04:58:04;100740.88;;;7.99;86.72
84944;BME280;75231;53.650;9.788;2023-12-28T05:00:30;100725.25;;;7.87;86.88
84944;BME280;75231;53.650;9.788;2023-12-28T05:02:55;100742.88;;;7.94;86.62
84944;BME280;75231;53.650;9.788;2023-12-28T05:05:20;100731.66;;;7.95;86.58
84944;BME280;75231;53.650;9.788;2023-12-28T05:07:45;100732.88;;;7.88;86.84
84944;BME280;75231;53.650;9.788;2023-12-28T05:10:11;100738.75;;;7.74;87.26
84944;BME280;75231;53.650;9.788;2023-12-28T05:12:36;100730.38;;;7.71;87.69
84944;BME280;75231;53.650;9.788;2023-12-28T05:15:01;100716.56;;;7.72;87.67
84944;BME280;75231;53.650;9.788;2023-12-28T05:17:27;100715.41;;;7.77;87.20
84944;BME280;75231;53.650;9.788;2023-12-28T05:19:52;100715.19;;;7.82;86.95
84944;BME280;75231;53.650;9.788;2023-12-28T05:22:17;100714.16;;;7.84;86.95
84944;BME280;75231;53.650;9.788;2023-12-28T05:24:42;100716.09;;;7.81;87.41
84944;BME280;75231;53.650;9.788;2023-12-28T05:27:08;100730.09;;;7.75;87.02
84944;BME280;75231;53.650;9.788;2023-12-28T05:29:33;100739.38;;;7.95;87.08
84944;BME280;75231;53.650;9.788;2023-12-28T05:31:58;100717.38;;;8.05;86.33
84944;BME280;75231;53.650;9.788;2023-12-28T05:34:24;100721.84;;;8.02;86.04
84944;BME280;75231;53.650;9.788;2023-12-28T05:36:49;100718.78;;;7.95;86.29
84944;BME280;75231;53.650;9.788;2023-12-28T05:39:15;100722.84;;;7.99;86.33
84944;BME280;75231;53.650;9.788;2023-12-28T05:41:40;100717.78;;;7.98;86.43
84944;BME280;75231;53.650;9.788;2023-12-28T05:44:05;100726.25;;;8.00;86.73
84944;BME280;75231;53.650;9.788;2023-12-28T05:46:31;100726.94;;;8.03;86.47
84944;BME280;75231;53.650;9.788;2023-12-28T05:48:56;100723.53;;;8.03;85.76
84944;BME280;75231;53.650;9.788;2023-12-28T05:51:22;100733.06;;;8.01;86.53
84944;BME280;75231;53.650;9.788;2023-12-28T05:53:47;100737.47;;;7.99;86.44
84944;BME280;75231;53.650;9.788;2023-12-28T05:56:12;100744.78;;;8.06;86.34
84944;BME280;75231;53.650;9.788;2023-12-28T05:58:38;100737.25;;;8.19;86.19
84944;BME280;75231;53.650;9.788;2023-12-28T06:01:04;100729.56;;;8.35;85.73
84944;BME280;75231;53.650;9.788;2023-12-28T06:03:30;100717.00;;;8.45;85.10
84944;BME280;75231;53.650;9.788;2023-12-28T06:05:56;100732.69;;;8.56;85.15
84944;BME280;75231;53.650;9.788;2023-12-28T06:08:22;100722.03;;;8.62;84.87
84944;BME280;75231;53.650;9.788;2023-12-28T06:10:47;100721.53;;;8.71;83.86
84944;BME280;75231;53.650;9.788;2023-12-28T06:13:12;100732.53;;;8.75;84.24
84944;BME280;75231;53.650;9.788;2023-12-28T06:15:38;100728.84;;;8.79;84.18
84944;BME280;75231;53.650;9.788;2023-12-28T06:18:03;100724.25;;;8.84;84.21
84944;BME280;75231;53.650;9.788;2023-12-28T06:20:29;100715.59;;;8.85;84.22
84944;BME280;75231;53.650;9.788;2023-12-28T06:22:54;100730.97;;;8.86;84.26
84944;BME280;75231;53.650;9.788;2023-12-28T06:25:20;100720.03;;;8.97;83.77
84944;BME280;75231;53.650;9.788;2023-12-28T06:27:45;100717.31;;;9.00;83.63
84944;BME280;75231;53.650;9.788;2023-12-28T06:30:10;100716.28;;;9.03;83.94
84944;BME280;75231;53.650;9.788;2023-12-28T06:32:36;100722.38;;;9.02;84.06
84944;BME280;75231;53.650;9.788;2023-12-28T06:35:01;100726.53;;;9.04;83.97
84944;BME280;75231;53.650;9.788;2023-12-28T06:37:26;100719.88;;;9.00;83.80
84944;BME280;75231;53.650;9.788;2023-12-28T06:39:52;100698.88;;;9.06;83.82
84944;BME280;75231;53.650;9.788;2023-12-28T06:42:17;100704.78;;;9.08;83.72
84944;BME280;75231;53.650;9.788;2023-12-28T06:44:42;100726.81;;;9.14;83.51
84944;BME280;75231;53.650;9.788;2023-12-28T06:47:08;100724.56;;;9.23;83.09
84944;BME280;75231;53.650;9.788;2023-12-28T06:49:33;100711.25;;;9.15;82.99
84944;BME280;75231;53.650;9.788;2023-12-28T06:51:58;100705.00;;;9.19;82.92
84944;BME280;75231;53.650;9.788;2023-12-28T06:54:24;100699.00;;;9.19;83.16
84944;BME280;75231;53.650;9.788;2023-12-28T06:56:49;100686.28;;;9.16;83.10
84944;BME280;75231;53.650;9.788;2023-12-28T06:59:16;100695.00;;;9.13;83.48
84944;BME280;75231;53.650;9.788;2023-12-28T07:01:41;100692.63;;;9.10;83.89
84944;BME280;75231;53.650;9.788;2023-12-28T07:04:07;100690.28;;;9.06;83.78
84944;BME280;75231;53.650;9.788;2023-12-28T07:06:33;100704.94;;;9.05;83.61
84944;BME280;75231;53.650;9.788;2023-12-28T07:08:58;100696.22;;;9.08;83.42
84944;BME280;75231;53.650;9.788;2023-12-28T07:11:23;100699.06;;;9.03;83.54
84944;BME280;75231;53.650;9.788;2023-12-28T07:13:49;100684.69;;;8.99;83.80
84944;BME280;75231;53.650;9.788;2023-12-28T07:16:14;100694.09;;;9.00;83.63
84944;BME280;75231;53.650;9.788;2023-12-28T07:18:41;100693.06;;;9.03;83.77
84944;BME280;75231;53.650;9.788;2023-12-28T07:21:07;100707.91;;;8.99;84.02
84944;BME280;75231;53.650;9.788;2023-12-28T07:23:34;100693.41;;;8.96;83.30
84944;BME280;75231;53.650;9.788;2023-12-28T07:26:00;100707.53;;;9.05;83.41
84944;BME280;75231;53.650;9.788;2023-12-28T07:28:25;100707.53;;;9.05;83.54
84944;BME280;75231;53.650;9.788;2023-12-28T07:30:50;100703.19;;;9.06;83.40
84944;BME280;75231;53.650;9.788;2023-12-28T07:33:15;100693.91;;;9.03;83.32
84944;BME280;75231;53.650;9.788;2023-12-28T07:35:41;100687.28;;;8.99;83.29
84944;BME280;75231;53.650;9.788;2023-12-28T07:38:06;100711.22;;;9.01;83.68
84944;BME280;75231;53.650;9.788;2023-12-28T07:40:31;100701.97;;;8.97;83.66
84944;BME280;75231;53.650;9.788;2023-12-28T07:42:57;100686.13;;;8.89;84.18
84944;BME280;75231;53.650;9.788;2023-12-28T07:45:22;100694.53;;;8.92;83.78
84944;BME280;75231;53.650;9.788;2023-12-28T07:47:50;100700.13;;;8.85;83.92
84944;BME280;75231;53.650;9.788;2023-12-28T07:50:16;100688.44;;;8.93;84.03
84944;BME280;75231;53.650;9.788;2023-12-28T07:52:42;100697.06;;;9.08;82.96
84944;BME280;75231;53.650;9.788;2023-12-28T07:55:08;100694.56;;;9.07;83.39
84944;BME280;75231;53.650;9.788;2023-12-28T07:57:33;100708.97;;;9.25;82.97
84944;BME280;75231;53.650;9.788;2023-12-28T07:59:59;100707.59;;;9.34;82.17
84944;BME280;75231;53.650;9.788;2023-12-28T08:02:24;100708.91;;;9.41;82.00
84944;BME280;75231;53.650;9.788;2023-12-28T08:04:49;100706.34;;;9.55;81.31
84944;BME280;75231;53.650;9.788;2023-12-28T08:07:15;100710.56;;;9.56;81.38
84944;BME280;75231;53.650;9.788;2023-12-28T08:09:40;100695.72;;;9.60;80.99
84944;BME280;75231;53.650;9.788;2023-12-28T08:12:05;100697.22;;;9.64;81.06
84944;BME280;75231;53.650;9.788;2023-12-28T08:14:31;100694.63;;;9.64;81.05
84944;BME280;75231;53.650;9.788;2023-12-28T08:16:56;100690.28;;;9.64;81.06
84944;BME280;75231;53.650;9.788;2023-12-28T08:19:21;100683.25;;;9.66;80.99
84944;BME280;75231;53.650;9.788;2023-12-28T08:21:47;100691.00;;;9.80;80.75
84944;BME280;75231;53.650;9.788;2023-12-28T08:24:12;100692.66;;;9.81;80.00
84944;BME280;75231;53.650;9.788;2023-12-28T08:26:37;100691.19;;;9.92;80.25
84944;BME280;75231;53.650;9.788;2023-12-28T08:29:03;100694.22;;;9.98;79.84
84944;BME280;75231;53.650;9.788;2023-12-28T08:31:28;100691.63;;;9.98;79.56
84944;BME280;75231;53.650;9.788;2023-12-28T08:33:55;100693.19;;;10.01;79.50
84944;BME280;75231;53.650;9.788;2023-12-28T08:36:21;100699.94;;;10.03;79.49
84944;BME280;75231;53.650;9.788;2023-12-28T08:38:46;100689.50;;;10.05;79.39
84944;BME280;75231;53.650;9.788;2023-12-28T08:41:21;100700.56;;;10.07;79.41
84944;BME280;75231;53.650;9.788;2023-12-28T08:43:49;100709.59;;;10.14;79.13
84944;BME280;75231;53.650;9.788;2023-12-28T08:46:14;100700.91;;;10.15;78.74
84944;BME280;75231;53.650;9.788;2023-12-28T08:48:40;100691.97;;;10.21;78.82
84944;BME280;75231;53.650;9.788;2023-12-28T08:51:06;100694.81;;;10.16;79.12
84944;BME280;75231;53.650;9.788;2023-12-28T08:53:31;100699.66;;;10.22;79.06
84944;BME280;75231;53.650;9.788;2023-12-28T08:55:57;100690.22;;;10.21;78.78
84944;BME280;75231;53.650;9.788;2023-12-28T08:58:22;100708.84;;;10.26;78.80
84944;BME280;75231;53.650;9.788;2023-12-28T09:00:48;100687.78;;;10.18;79.37
84944;BME280;75231;53.650;9.788;2023-12-28T09:03:14;100707.97;;;10.27;78.63
84944;BME280;75231;53.650;9.788;2023-12-28T09:05:39;100714.47;;;10.33;78.61
84944;BME280;75231;53.650;9.788;2023-12-28T09:08:05;100705.91;;;10.32;78.40
84944;BME280;75231;53.650;9.788;2023-12-28T09:10:30;100715.84;;;10.39;78.19
84944;BME280;75231;53.650;9.788;2023-12-28T09:12:56;100715.47;;;10.45;77.46
84944;BME280;75231;53.650;9.788;2023-12-28T09:15:39;100702.44;;;10.46;77.39
84944;BME280;75231;53.650;9.788;2023-12-28T09:18:05;100714.25;;;10.50;77.32
84944;BME280;75231;53.650;9.788;2023-12-28T09:20:30;100710.44;;;10.56;77.43
84944;BME280;75231;53.650;9.788;2023-12-28T09:22:57;100721.22;;;10.62;77.24
84944;BME280;75231;53.650;9.788;2023-12-28T09:25:22;100710.06;;;10.62;76.38
84944;BME280;75231;53.650;9.788;2023-12-28T09:27:47;100715.47;;;10.72;76.49
84944;BME280;75231;53.650;9.788;2023-12-28T09:30:13;100713.53;;;10.75;76.19
84944;BME280;75231;53.650;9.788;2023-12-28T09:32:39;100724.78;;;10.74;75.62
84944;BME280;75231;53.650;9.788;2023-12-28T09:35:04;100728.19;;;10.75;75.68
84944;BME280;75231;53.650;9.788;2023-12-28T09:37:30;100734.13;;;10.77;75.67
84944;BME280;75231;53.650;9.788;2023-12-28T09:39:55;100718.59;;;10.77;76.00
84944;BME280;75231;53.650;9.788;2023-12-28T09:42:26;100722.13;;;10.88;75.32
84944;BME280;75231;53.650;9.788;2023-12-28T09:44:54;100717.16;;;10.85;75.51
84944;BME280;75231;53.650;9.788;2023-12-28T09:47:20;100715.19;;;10.89;75.49
84944;BME280;75231;53.650;9.788;2023-12-28T09:49:45;100709.91;;;10.90;75.01
84944;BME280;75231;53.650;9.788;2023-12-28T09:52:12;100705.38;;;10.94;75.39
84944;BME280;75231;53.650;9.788;2023-12-28T09:54:37;100700.31;;;10.92;75.06
84944;BME280;75231;53.650;9.788;2023-12-28T10:00:24;100711.72;;;11.03;74.32
84944;BME280;75231;53.650;9.788;2023-12-28T10:02:50;100709.84;;;11.05;74.00
84944;BME280;75231;53.650;9.788;2023-12-28T10:05:15;100713.91;;;11.09;74.15
84944;BME280;75231;53.650;9.788;2023-12-28T10:07:44;100724.69;;;11.15;73.82
84944;BME280;75231;53.650;9.788;2023-12-28T10:10:10;100697.34;;;11.24;72.92
84944;BME280;75231;53.650;9.788;2023-12-28T10:12:37;100711.34;;;11.34;73.68
84944;BME280;75231;53.650;9.788;2023-12-28T10:15:03;100704.50;;;11.33;72.62
84944;BME280;75231;53.650;9.788;2023-12-28T10:17:29;100701.91;;;11.33;73.20
84944;BME280;75231;53.650;9.788;2023-12-28T10:19:54;100698.69;;;11.30;73.45
84944;BME280;75231;53.650;9.788;2023-12-28T10:22:27;100692.56;;;11.31;72.94
84944;BME280;75231;53.650;9.788;2023-12-28T10:24:52;100697.13;;;11.27;73.71
84944;BME280;75231;53.650;9.788;2023-12-28T10:27:17;100699.00;;;11.25;73.27
84944;BME280;75231;53.650;9.788;2023-12-28T10:29:43;100703.53;;;11.21;73.69
84944;BME280;75231;53.650;9.788;2023-12-28T10:32:08;100691.84;;;11.16;73.54
84944;BME280;75231;53.650;9.788;2023-12-28T10:34:33;100710.47;;;11.21;73.79
84944;BME280;75231;53.650;9.788;2023-12-28T10:36:59;100715.47;;;11.24;73.76
84944;BME280;75231;53.650;9.788;2023-12-28T10:39:28;100724.38;;;11.20;74.01
84944;BME280;75231;53.650;9.788;2023-12-28T10:41:59;100709.78;;;11.19;73.57
84944;BME280;75231;53.650;9.788;2023-12-28T10:44:31;100720.22;;;11.30;73.23
84944;BME280;75231;53.650;9.788;2023-12-28T10:47:02;100712.28;;;11.33;73.05
84944;BME280;75231;53.650;9.788;2023-12-28T10:49:30;100728.84;;;11.43;73.04
84944;BME280;75231;53.650;9.788;2023-12-28T10:51:59;100722.44;;;11.49;72.64
84944;BME280;75231;53.650;9.788;2023-12-28T10:59:56;100717.25;;;11.49;72.17
84944;BME280;75231;53.650;9.788;2023-12-28T11:02:28;100709.06;;;11.42;71.97
84944;BME280;75231;53.650;9.788;2023-12-28T11:04:54;100705.41;;;11.45;72.48
84944;BME280;75231;53.650;9.788;2023-12-28T11:07:21;100699.00;;;11.51;71.68
84944;BME280;75231;53.650;9.788;2023-12-28T11:09:47;100697.97;;;11.53;72.25
84944;BME280;75231;53.650;9.788;2023-12-28T11:12:13;100711.03;;;11.52;71.66
84944;BME280;75231;53.650;9.788;2023-12-28T11:14:39;100713.09;;;11.59;72.17
84944;BME280;75231;53.650;9.788;2023-12-28T11:17:05;100711.84;;;11.52;71.86
84944;BME280;75231;53.650;9.788;2023-12-28T11:19:32;100723.16;;;11.51;71.76
84944;BME280;75231;53.650;9.788;2023-12-28T11:21:58;100721.78;;;11.45;72.28
84944;BME280;75231;53.650;9.788;2023-12-28T11:24:26;100722.22;;;11.39;72.61
84944;BME280;75231;53.650;9.788;2023-12-28T11:26:54;100723.88;;;11.40;72.75
84944;BME280;75231;53.650;9.788;2023-12-28T11:29:21;100720.97;;;11.45;72.25
84944;BME280;75231;53.650;9.788;2023-12-28T11:31:58;100714.78;;;11.47;71.90
84944;BME280;75231;53.650;9.788;2023-12-28T11:34:31;100718.78;;;11.52;71.55
84944;BME280;75231;53.650;9.788;2023-12-28T11:37:01;100717.84;;;11.53;72.12
84944;BME280;75231;53.650;9.788;2023-12-28T11:39:35;100703.97;;;11.54;71.28
84944;BME280;75231;53.650;9.788;2023-12-28T11:42:02;100709.06;;;11.55;71.35
84944;BME280;75231;53.650;9.788;2023-12-28T11:44:29;100707.38;;;11.54;71.79
84944;BME280;75231;53.650;9.788;2023-12-28T11:46:54;100707.50;;;11.53;72.05
84944;BME280;75231;53.650;9.788;2023-12-28T11:49:25;100718.50;;;11.56;71.48
84944;BME280;75231;53.650;9.788;2023-12-28T11:51:57;100689.25;;;11.54;71.65
84944;BME280;75231;53.650;9.788;2023-12-28T11:54:24;100709.16;;;11.54;71.83
84944;BME280;75231;53.650;9.788;2023-12-28T11:56:50;100708.13;;;11.56;72.30
84944;BME280;75231;53.650;9.788;2023-12-28T11:59:16;100704.38;;;11.60;71.80
84944;BME280;75231;53.650;9.788;2023-12-28T12:01:41;100702.44;;;11.64;71.26
84944;BME280;75231;53.650;9.788;2023-12-28T12:04:06;100698.78;;;11.66;71.74
84944;BME280;75231;53.650;9.788;2023-12-28T12:06:32;100703.16;;;11.66;72.02
84944;BME280;75231;53.650;9.788;2023-12-28T12:08:58;100692.88;;;11.64;72.52
84944;BME280;75231;53.650;9.788;2023-12-28T12:11:24;100704.78;;;11.67;72.03
84944;BME280;75231;53.650;9.788;2023-12-28T12:13:51;100708.63;;;11.74;71.82
84944;BME280;75231;53.650;9.788;2023-12-28T12:16:17;100699.38;;;11.70;71.92
84944;BME280;75231;53.650;9.788;2023-12-28T12:18:43;100700.75;;;11.63;72.16
84944;BME280;75231;53.650;9.788;2023-12-28T12:21:08;100705.22;;;11.61;72.46
84944;BME280;75231;53.650;9.788;2023-12-28T12:23:33;100689.88;;;11.58;72.45
84944;BME280;75231;53.650;9.788;2023-12-28T12:25:59;100702.50;;;11.62;72.91
84944;BME280;75231;53.650;9.788;2023-12-28T12:28:24;100692.06;;;11.51;73.94
84944;BME280;75231;53.650;9.788;2023-12-28T12:30:52;100706.25;;;11.45;73.63
84944;BME280;75231;53.650;9.788;2023-12-28T12:33:18;100693.09;;;11.48;72.57
84944;BME280;75231;53.650;9.788;2023-12-28T12:35:44;100711.66;;;11.55;72.53
84944;BME280;75231;53.650;9.788;2023-12-28T12:38:09;100701.91;;;11.59;72.42
84944;BME280;75231;53.650;9.788;2023-12-28T12:40:36;100701.06;;;11.58;72.34
84944;BME280;75231;53.650;9.788;2023-12-28T12:43:02;100704.38;;;11.60;72.50
84944;BME280;75231;53.650;9.788;2023-12-28T12:45:27;100706.88;;;11.62;72.04
84944;BME280;75231;53.650;9.788;2023-12-28T12:47:52;100708.50;;;11.63;72.15
84944;BME280;75231;53.650;9.788;2023-12-28T12:50:18;100708.97;;;11.57;73.21
84944;BME280;75231;53.650;9.788;2023-12-28T12:52:43;100703.97;;;11.54;73.18
84944;BME280;75231;53.650;9.788;2023-12-28T12:55:11;100702.53;;;11.49;73.10
84944;BME280;75231;53.650;9.788;2023-12-28T12:57:37;100703.59;;;11.47;72.61
84944;BME280;75231;53.650;9.788;2023-12-28T13:00:04;100700.25;;;11.45;73.50
84944;BME280;75231;53.650;9.788;2023-12-28T13:02:33;100705.72;;;11.53;72.16